Time;durP1;ratioP1;P1;durP2;ratioP2;P2;SDS_P1;SDS_P2;PMS_P1;PMS_P2;Temp;Humidity;BMP_temperature;BMP_pressure;BME280_temperature;BME280_humidity;BME280_pressure;Samples;Min_cycle;Max_cycle;Signal;HPM_P1;HPM_P2
2022/09/26 00:01:08;;;;;;;11.05;7.75;;;;;;;14.46;100.00;99894.53;4977127;28;20126;-87
2022/09/26 00:03:34;;;;;;;12.10;8.05;;;;;;;14.46;100.00;99891.06;4959409;28;20050;-90
2022/09/26 00:06:09;;;;;;;8.68;6.88;;;;;;;14.47;100.00;99890.03;4978018;28;20053;-89
2022/09/26 00:08:36;;;;;;;14.70;7.47;;;;;;;14.49;100.00;99885.31;4979362;28;20027;-89
2022/09/26 00:11:04;;;;;;;11.77;7.13;;;;;;;14.49;100.00;99879.97;4976750;28;20070;-90
2022/09/26 00:13:31;;;;;;;7.88;6.43;;;;;;;14.62;100.00;99876.50;4977730;28;20035;-90
2022/09/26 00:15:57;;;;;;;8.40;6.35;;;;;;;14.57;100.00;99878.97;4944548;28;20038;-90
2022/09/26 00:18:23;;;;;;;9.82;6.30;;;;;;;14.53;100.00;99878.56;4959902;28;20039;-89
2022/09/26 00:20:48;;;;;;;8.20;6.32;;;;;;;14.30;100.00;99875.41;4979181;28;20034;-88
2022/09/26 00:23:15;;;;;;;15.60;6.45;;;;;;;14.25;100.00;99864.53;4986708;28;20113;-88
2022/09/26 00:25:49;;;;;;;6.90;5.68;;;;;;;14.28;100.00;99869.47;4964445;28;20114;-89
2022/09/26 00:28:15;;;;;;;11.07;5.95;;;;;;;14.43;100.00;99862.13;4979860;28;20106;-90
2022/09/26 00:30:42;;;;;;;9.93;6.38;;;;;;;14.28;100.00;99864.13;4962292;28;20049;-89
2022/09/26 00:33:07;;;;;;;10.85;6.30;;;;;;;14.15;100.00;99858.78;4979300;28;20066;-89
2022/09/26 00:35:33;;;;;;;8.30;5.95;;;;;;;14.06;100.00;99859.97;4962184;28;20095;-88
2022/09/26 00:37:58;;;;;;;8.18;6.03;;;;;;;14.01;100.00;99857.09;4962897;28;20460;-88
2022/09/26 00:40:26;;;;;;;11.43;5.90;;;;;;;13.94;100.00;99855.22;4980602;28;20085;-88
2022/09/26 00:42:55;;;;;;;13.43;6.45;;;;;;;13.95;100.00;99851.53;4978115;28;20142;-89
2022/09/26 00:45:29;;;;;;;10.88;5.90;;;;;;;14.11;100.00;99850.34;4978580;28;20058;-88
2022/09/26 00:48:04;;;;;;;9.15;6.10;;;;;;;13.90;100.00;99835.34;4979685;28;20122;-87
2022/09/26 00:50:40;;;;;;;9.88;6.10;;;;;;;13.89;100.00;99833.69;4978655;28;20093;-89
2022/09/26 00:53:14;;;;;;;10.88;6.15;;;;;;;13.89;100.00;99828.34;4977537;28;20058;-88
2022/09/26 00:55:45;;;;;;;6.80;5.53;;;;;;;13.96;100.00;99818.53;4945006;28;20444;-89
2022/09/26 00:58:21;;;;;;;16.83;6.07;;;;;;;13.88;100.00;99826.72;4977266;28;20519;-86
2022/09/26 01:00:48;;;;;;;6.80;4.85;;;;;;;14.03;100.00;99823.88;4959587;28;20034;-90
2022/09/26 01:03:16;;;;;;;11.68;5.78;;;;;;;14.07;100.00;99829.63;4960143;28;20506;-88
2022/09/26 01:05:44;;;;;;;10.90;6.13;;;;;;;14.05;100.00;99826.38;4961239;28;20118;-88
2022/09/26 01:08:12;;;;;;;6.72;5.45;;;;;;;14.10;100.00;99821.22;4961021;28;20046;-87
2022/09/26 01:10:38;;;;;;;7.85;5.88;;;;;;;14.17;100.00;99822.06;4977662;28;20360;-87
2022/09/26 01:13:07;;;;;;;8.50;5.35;;;;;;;14.23;100.00;99815.94;4961157;28;20035;-86
2022/09/26 01:15:35;;;;;;;5.68;4.53;;;;;;;14.19;100.00;99812.03;4967495;28;20019;-87
2022/09/26 01:18:01;;;;;;;11.13;5.13;;;;;;;14.15;100.00;99810.81;4979217;28;20034;-90
2022/09/26 01:20:31;;;;;;;9.18;5.07;;;;;;;14.13;100.00;99807.50;4980552;28;20046;-90
2022/09/26 01:23:44;;;;;;;12.10;5.15;;;;;;;13.82;100.00;99797.41;4981721;28;20034;-89
2022/09/26 01:26:29;;;;;;;6.15;4.32;;;;;;;13.92;100.00;99795.97;4985841;28;20034;-89
2022/09/26 01:29:04;;;;;;;6.35;4.90;;;;;;;14.04;100.00;99784.75;4981417;28;20588;-87
2022/09/26 01:35:22;;;;;;;7.78;4.82;;;;;;;14.04;100.00;99787.41;4979596;28;20043;-88
2022/09/26 01:38:16;;;;;;;13.68;4.70;;;;;;;13.94;100.00;99796.63;4962686;28;20039;-87
2022/09/26 01:41:13;;;;;;;7.68;4.90;;;;;;;13.84;100.00;99796.19;4970176;28;20033;-86
2022/09/26 01:43:42;;;;;;;10.27;5.10;;;;;;;13.87;100.00;99785.13;4996234;28;20043;-87
2022/09/26 01:46:27;;;;;;;6.45;5.10;;;;;;;13.82;100.00;99779.56;4982215;28;20046;-88
2022/09/26 01:49:24;;;;;;;6.25;4.80;;;;;;;13.84;100.00;99782.03;4979782;28;20412;-89
2022/09/26 01:51:59;;;;;;;7.25;4.68;;;;;;;13.66;100.00;99766.63;4949394;28;20138;-90
2022/09/26 01:54:35;;;;;;;9.82;4.72;;;;;;;13.59;100.00;99770.28;4978093;28;20039;-89
2022/09/26 01:57:05;;;;;;;7.55;5.07;;;;;;;13.60;100.00;99764.75;4959476;28;20042;-90
2022/09/26 01:59:38;;;;;;;6.70;5.00;;;;;;;13.73;100.00;99756.81;4978027;28;20101;-89
2022/09/26 02:02:12;;;;;;;8.93;5.00;;;;;;;13.82;100.00;99758.25;4960944;28;20093;-86
2022/09/26 02:04:41;;;;;;;6.95;4.75;;;;;;;13.71;100.00;99764.19;4978695;28;20030;-88
2022/09/26 02:07:10;;;;;;;6.97;4.90;;;;;;;13.75;100.00;99760.09;4975312;28;20035;-89
2022/09/26 02:09:47;;;;;;;6.60;4.88;;;;;;;13.83;100.00;99757.25;4973202;28;20452;-88
2022/09/26 02:12:23;;;;;;;7.47;4.50;;;;;;;13.81;100.00;99755.81;4974525;28;20042;-89
2022/09/26 02:14:51;;;;;;;6.22;4.38;;;;;;;13.74;100.00;99747.81;4973731;28;20038;-88
2022/09/26 02:17:23;;;;;;;6.78;4.68;;;;;;;13.71;100.00;99745.53;4973274;28;20070;-88
2022/09/26 02:19:56;;;;;;;5.65;4.22;;;;;;;13.74;100.00;99749.63;4976592;28;20051;-87
2022/09/26 02:22:26;;;;;;;5.85;4.05;;;;;;;13.72;100.00;99747.16;4975319;28;20175;-86
2022/09/26 02:24:52;;;;;;;5.28;3.80;;;;;;;13.75;100.00;99749.44;4972986;28;20042;-87
2022/09/26 02:27:21;;;;;;;7.43;4.57;;;;;;;13.81;100.00;99748.66;4973560;28;20436;-88
2022/09/26 02:29:46;;;;;;;7.00;4.32;;;;;;;13.78;100.00;99746.38;4973923;28;20042;-90
2022/09/26 02:32:18;;;;;;;6.43;4.20;;;;;;;13.90;100.00;99750.09;4975300;28;20039;-88
2022/09/26 02:34:46;;;;;;;8.68;4.57;;;;;;;13.95;100.00;99749.50;4979212;28;20062;-89
2022/09/26 02:37:14;;;;;;;7.57;3.80;;;;;;;13.96;100.00;99749.28;4973663;28;20034;-86
2022/09/26 02:39:45;;;;;;;6.95;4.35;;;;;;;13.98;100.00;99749.09;4976208;28;20070;-89
2022/09/26 02:42:22;;;;;;;6.80;4.63;;;;;;;13.65;100.00;99749.03;4978124;28;20035;-88
2022/09/26 02:44:55;;;;;;;12.68;5.35;;;;;;;13.33;100.00;99747.03;4960892;28;20066;-85
2022/09/26 02:48:11;;;;;;;8.95;5.35;;;;;;;13.20;100.00;99752.31;4976349;28;20029;-84
2022/09/26 02:50:51;;;;;;;8.02;5.28;;;;;;;13.27;100.00;99755.81;4893970;28;20049;-87
2022/09/26 02:53:39;;;;;;;8.15;5.22;;;;;;;13.43;100.00;99756.31;4977780;28;20472;-84
2022/09/26 02:56:22;;;;;;;8.65;5.60;;;;;;;13.46;100.00;99736.44;4979353;28;20095;-87
2022/09/26 02:59:12;;;;;;;10.77;5.53;;;;;;;13.65;100.00;99735.69;4985466;28;20039;-88
2022/09/26 03:01:47;;;;;;;11.30;4.97;;;;;;;13.52;100.00;99734.84;4975210;28;20061;-86
2022/09/26 03:04:40;;;;;;;10.32;5.25;;;;;;;13.48;100.00;99738.91;4993913;28;20086;-88
2022/09/26 03:07:13;;;;;;;9.98;5.00;;;;;;;13.36;100.00;99736.00;4994902;28;20078;-87
2022/09/26 03:09:40;;;;;;;7.22;5.50;;;;;;;13.19;100.00;99750.69;4991789;28;20069;-88
2022/09/26 03:12:08;;;;;;;12.80;5.20;;;;;;;13.09;100.00;99744.91;4989548;28;20030;-86
2022/09/26 03:14:38;;;;;;;6.65;5.53;;;;;;;13.13;100.00;99746.13;4968175;28;20461;-88
2022/09/26 03:17:04;;;;;;;7.30;5.45;;;;;;;13.17;100.00;99742.88;4980219;28;20027;-86
2022/09/26 03:19:48;;;;;;;7.60;5.95;;;;;;;13.20;100.00;99746.97;4980264;28;20046;-88
2022/09/26 03:22:15;;;;;;;9.30;6.05;;;;;;;13.24;100.00;99732.28;4975872;28;20047;-87
2022/09/26 03:24:41;;;;;;;10.80;5.55;;;;;;;13.17;100.00;99736.75;4975474;28;20027;-86
2022/09/26 03:27:11;;;;;;;6.75;5.18;;;;;;;13.25;100.00;99726.75;4976598;28;20121;-86
2022/09/26 03:29:37;;;;;;;7.30;4.95;;;;;;;13.46;100.00;99715.16;4975380;28;20042;-88
2022/09/26 03:32:05;;;;;;;6.95;5.22;;;;;;;13.50;100.00;99720.88;4975384;28;20042;-85
2022/09/26 03:34:31;;;;;;;12.07;5.30;;;;;;;13.47;100.00;99719.47;4976281;28;20461;-88
2022/09/26 03:36:57;;;;;;;9.48;5.05;;;;;;;13.52;100.00;99719.69;4960061;28;20047;-86
2022/09/26 03:39:22;;;;;;;11.38;5.68;;;;;;;13.34;100.00;99727.41;4977805;28;20054;-88
2022/09/26 03:42:00;;;;;;;11.77;5.00;;;;;;;13.31;100.00;99717.16;4976720;28;20496;-89
2022/09/26 03:44:28;;;;;;;8.38;5.68;;;;;;;13.30;100.00;99713.66;4977352;28;20034;-86
2022/09/26 03:47:14;;;;;;;10.02;5.78;;;;;;;13.37;100.00;99716.34;4978394;28;20046;-87
2022/09/26 03:49:42;;;;;;;7.55;5.15;;;;;;;13.30;100.00;99705.69;4977783;28;20034;-86
2022/09/26 03:52:10;;;;;;;7.72;5.13;;;;;;;13.29;100.00;99709.34;4974841;28;20495;-88
2022/09/26 03:54:37;;;;;;;7.47;5.30;;;;;;;13.24;100.00;99700.34;4974703;28;20034;-86
2022/09/26 03:57:02;;;;;;;8.52;5.70;;;;;;;13.29;100.00;99698.72;4976394;28;20035;-87
2022/09/26 03:59:28;;;;;;;7.85;4.75;;;;;;;13.40;100.00;99705.31;4975156;28;20455;-87
2022/09/26 04:01:54;;;;;;;7.57;5.32;;;;;;;13.46;100.00;99707.16;4974589;28;20043;-86
2022/09/26 04:04:20;;;;;;;9.25;5.25;;;;;;;13.47;100.00;99698.16;4974738;28;20067;-86
2022/09/26 04:06:46;;;;;;;10.55;5.13;;;;;;;13.49;100.00;99697.97;4975915;28;20031;-86
2022/09/26 04:09:13;;;;;;;7.50;5.18;;;;;;;13.30;100.00;99692.38;4990912;28;20031;-86
2022/09/26 04:11:39;;;;;;;7.45;5.18;;;;;;;13.08;100.00;99690.00;4975602;28;20109;-86
2022/09/26 04:14:07;;;;;;;7.43;5.03;;;;;;;12.94;100.00;99691.78;4974285;28;20042;-85
2022/09/26 04:16:35;;;;;;;8.20;6.07;;;;;;;12.84;100.00;99694.00;4974554;28;20034;-86
2022/09/26 04:19:21;;;;;;;8.18;6.07;;;;;;;12.81;100.00;99697.88;4984624;28;20101;-84
2022/09/26 04:21:47;;;;;;;7.43;5.78;;;;;;;12.86;100.00;99699.91;4982479;28;20030;-86
2022/09/26 04:24:15;;;;;;;6.97;5.63;;;;;;;12.97;100.00;99694.06;4974239;28;20209;-86
2022/09/26 04:26:42;;;;;;;9.77;6.25;;;;;;;13.07;100.00;99693.69;4974365;28;20047;-86
2022/09/26 04:29:08;;;;;;;7.85;5.80;;;;;;;13.22;100.00;99697.06;4975296;28;20404;-84
2022/09/26 04:31:53;;;;;;;7.43;5.15;;;;;;;13.16;100.00;99697.84;4973723;28;20127;-86
2022/09/26 04:34:23;;;;;;;11.15;5.70;;;;;;;13.24;100.00;99698.50;4973794;28;20035;-86
2022/09/26 04:36:51;;;;;;;10.13;5.35;;;;;;;13.17;100.00;99696.81;4973799;28;20042;-85
2022/09/26 04:39:17;;;;;;;7.15;5.30;;;;;;;13.15;100.00;99701.53;4973379;28;20031;-85
2022/09/26 04:41:44;;;;;;;12.05;6.10;;;;;;;13.29;100.00;99704.03;4974026;28;20154;-86
2022/09/26 04:44:11;;;;;;;6.88;5.70;;;;;;;13.00;100.00;99709.63;4975340;28;20177;-84
2022/09/26 04:46:37;;;;;;;6.90;5.80;;;;;;;12.79;100.00;99694.56;4973847;28;20508;-86
2022/09/26 04:49:03;;;;;;;8.98;5.68;;;;;;;12.69;100.00;99688.81;4973286;28;20039;-85
2022/09/26 04:51:30;;;;;;;13.13;5.53;;;;;;;12.67;100.00;99682.84;4973750;28;20035;-88
2022/09/26 04:53:57;;;;;;;11.73;6.20;;;;;;;12.76;100.00;99675.56;4974036;28;20031;-85
2022/09/26 04:56:28;;;;;;;8.60;5.38;;;;;;;12.86;100.00;99674.16;4973596;28;20031;-85
2022/09/26 04:58:56;;;;;;;9.15;5.75;;;;;;;12.96;100.00;99682.59;4957230;28;20123;-87
2022/09/26 05:01:24;;;;;;;7.43;5.55;;;;;;;12.94;100.00;99684.63;4972807;28;20041;-85
2022/09/26 05:04:00;;;;;;;6.78;5.25;;;;;;;12.90;100.00;99690.53;4973331;28;20118;-84
2022/09/26 05:06:27;;;;;;;8.85;5.55;;;;;;;12.63;100.00;99699.38;4973097;28;20129;-85
2022/09/26 05:08:53;;;;;;;9.27;6.07;;;;;;;12.41;100.00;99693.31;4978486;28;20073;-88
2022/09/26 05:11:33;;;;;;;17.95;6.40;;;;;;;12.31;100.00;99698.16;4974189;28;20477;-88
2022/09/26 05:13:59;;;;;;;11.02;7.13;;;;;;;12.27;100.00;99695.06;4974564;28;20046;-89
2022/09/26 05:16:28;;;;;;;15.15;6.35;;;;;;;12.41;100.00;99693.31;4975946;28;20171;-88
2022/09/26 05:18:57;;;;;;;7.45;5.90;;;;;;;12.64;100.00;99693.88;4957515;28;20030;-90
2022/09/26 05:21:29;;;;;;;9.20;6.60;;;;;;;12.65;100.00;99692.88;4946537;28;20046;-89
2022/09/26 05:26:43;;;;;;;10.80;5.90;;;;;;;12.55;100.00;99689.75;4965711;28;20058;-86
2022/09/26 05:29:11;;;;;;;11.88;6.22;;;;;;;12.52;100.00;99682.16;4983359;28;20045;-88
2022/09/26 05:31:44;;;;;;;14.13;6.85;;;;;;;12.51;100.00;99677.84;4965314;28;20116;-89
2022/09/26 05:34:11;;;;;;;9.50;6.50;;;;;;;12.50;100.00;99670.06;4949656;28;20033;-88
2022/09/26 05:36:38;;;;;;;12.90;5.93;;;;;;;12.65;100.00;99671.59;5013523;28;20028;-88
2022/09/26 05:40:55;;;;;;;13.48;6.38;;;;;;;12.66;100.00;99670.56;4982216;28;20034;-87
2022/09/26 05:41:53;;;;;;;10.10;6.40;;;;;;;12.80;100.00;99682.91;4974940;28;20043;-89
2022/09/26 05:44:19;;;;;;;10.18;6.30;;;;;;;12.77;100.00;99696.63;4994291;28;20096;-88
2022/09/26 05:46:46;;;;;;;8.88;6.18;;;;;;;12.67;100.00;99688.16;4968358;28;20099;-85
2022/09/26 06:00:56;;;;;;;9.88;5.80;;;;;;;13.38;100.00;99713.50;4902098;23;20058;-78
2022/09/26 06:04:30;;;;;;;7.88;5.15;;;;;;;13.36;100.00;99698.72;5001513;28;20510;-79
2022/09/26 06:07:41;;;;;;;7.57;5.40;;;;;;;13.25;100.00;99683.38;4991495;28;20053;-80
2022/09/26 06:10:37;;;;;;;;;;;;;;;13.11;100.00;99689.66;4964111;28;20055;-81
2022/09/26 06:13:42;;;;;;;6.25;4.90;;;;;;;13.03;100.00;99695.91;4973105;28;19941;-81
2022/09/26 06:16:24;;;;;;;12.23;5.90;;;;;;;13.06;100.00;99697.38;4998947;28;20050;-78
2022/09/26 06:18:52;;;;;;;12.00;5.47;;;;;;;13.18;100.00;99701.13;4976927;28;20046;-79
2022/09/26 06:21:26;;;;;;;15.35;6.32;;;;;;;13.00;100.00;99706.13;5004939;28;20056;-81
2022/09/26 06:24:19;;;;;;;9.85;6.18;;;;;;;12.85;100.00;99707.09;5004189;28;20062;-78
2022/09/26 06:27:02;;;;;;;17.17;6.72;;;;;;;12.82;100.00;99702.19;5001510;28;20106;-78
2022/09/26 06:29:29;;;;;;;7.20;6.10;;;;;;;12.84;100.00;99705.44;4977973;28;20046;-78
2022/09/26 06:31:56;;;;;;;11.80;6.15;;;;;;;13.10;100.00;99701.28;5009193;28;20034;-79
2022/09/26 06:35:00;;;;;;;10.52;5.95;;;;;;;13.32;100.00;99703.63;4943451;29;20103;-78
2022/09/26 06:37:47;;;;;;;6.50;5.03;;;;;;;13.31;100.00;99706.50;4933544;28;20035;-77
2022/09/26 06:40:14;;;;;;;6.85;5.20;;;;;;;13.28;100.00;99722.88;5026572;28;20089;-79
2022/09/26 06:42:45;;;;;;;10.75;5.60;;;;;;;13.24;100.00;99721.63;4986234;28;20051;-81
2022/09/26 06:45:30;;;;;;;7.43;5.72;;;;;;;13.43;100.00;99726.19;4990568;28;20026;-85
2022/09/26 06:48:52;;;;;;;11.05;6.68;;;;;;;13.45;100.00;99724.16;4990134;28;20053;-83
2022/09/26 06:51:26;;;;;;;;;;;;;;;13.65;100.00;99724.22;4997460;28;20078;-84
2022/09/26 06:54:09;;;;;;;;;;;;;;;13.87;100.00;99733.69;4995586;28;19922;-82
2022/09/26 06:56:38;;;;;;;17.25;6.78;;;;;;;13.91;100.00;99737.59;5010973;28;19956;-86
2022/09/26 06:59:16;;;;;;;10.13;6.13;;;;;;;14.11;100.00;99737.63;5000891;28;20014;-84
2022/09/26 07:02:24;;;;;;;11.60;6.85;;;;;;;14.74;100.00;99741.53;5013930;28;20046;-84
2022/09/26 07:05:21;;;;;;;9.50;6.00;;;;;;;15.43;100.00;99731.84;4989131;28;20045;-82
2022/09/26 07:08:17;;;;;;;7.47;5.28;;;;;;;15.90;100.00;99721.75;5018231;28;20057;-83
2022/09/26 07:10:59;;;;;;;17.60;5.13;;;;;;;16.36;100.00;99724.06;4991157;28;20050;-84
2022/09/26 07:13:51;;;;;;;5.60;4.72;;;;;;;16.78;100.00;99725.97;5003241;23;20054;-83
2022/09/26 07:16:55;;;;;;;8.07;5.07;;;;;;;16.99;100.00;99727.41;4995194;28;20102;-82
2022/09/26 07:20:28;;;;;;;8.45;4.60;;;;;;;17.69;100.00;99728.63;4938204;29;20040;-80
2022/09/26 07:23:23;;;;;;;16.88;5.03;;;;;;;18.04;100.00;99724.19;4939446;29;20127;-81
2022/09/26 07:26:21;;;;;;;10.90;5.15;;;;;;;18.28;100.00;99732.28;4924758;29;20068;-80
2022/09/26 07:28:50;;;;;;;15.65;4.90;;;;;;;17.41;100.00;99734.50;4962469;23;20052;-87
2022/09/26 07:31:16;;;;;;;10.57;4.63;;;;;;;16.78;100.00;99728.66;4926656;29;20130;-88
2022/09/26 07:33:48;;;;;;;9.50;5.30;;;;;;;16.48;100.00;99725.81;4922670;29;20063;-91
2022/09/26 07:36:14;;;;;;;8.82;5.10;;;;;;;16.29;100.00;99715.28;4922763;29;20103;-88
2022/09/26 07:38:42;;;;;;;12.45;5.68;;;;;;;16.16;100.00;99715.41;4922255;29;20039;-88
2022/09/26 07:41:10;;;;;;;12.93;5.75;;;;;;;16.21;100.00;99720.91;4906997;29;20071;-89
2022/09/26 07:43:36;;;;;;;12.48;5.90;;;;;;;15.90;100.00;99717.25;4904876;29;20063;-90
2022/09/26 07:51:59;;;;;;;7.28;5.30;;;;;;;17.01;100.00;99709.25;4940484;28;20502;-87
2022/09/26 07:54:34;;;;;;;14.77;6.35;;;;;;;18.12;100.00;99706.13;4940660;29;20103;-89
2022/09/26 07:57:13;;;;;;;9.25;5.70;;;;;;;19.08;100.00;99715.38;4954887;29;20039;-90
2022/09/26 08:00:04;;;;;;;11.88;5.50;;;;;;;19.77;100.00;99718.06;4955914;28;20032;-88
2022/09/26 08:03:03;;;;;;;6.57;4.78;;;;;;;19.76;100.00;99711.06;4947358;29;20076;-91
2022/09/26 08:05:30;;;;;;;8.48;5.30;;;;;;;19.73;100.00;99704.28;4941798;29;20078;-90
2022/09/26 08:07:56;;;;;;;7.22;5.07;;;;;;;20.05;100.00;99702.69;4929877;29;20091;-91
2022/09/26 08:10:41;;;;;;;7.70;5.00;;;;;;;20.68;100.00;99712.34;4929602;29;20062;-89
2022/09/26 08:13:24;;;;;;;11.47;5.00;;;;;;;21.68;100.00;99701.19;4923669;29;20111;-90
2022/09/26 08:16:21;;;;;;;6.13;4.78;;;;;;;22.25;100.00;99706.88;4869387;29;20281;-89
2022/09/26 08:18:52;;;;;;;6.25;4.75;;;;;;;22.29;97.14;99707.19;4953315;29;20028;-89
2022/09/26 08:21:19;;;;;;;11.20;6.40;;;;;;;22.26;98.08;99713.09;4970096;29;20043;-87
2022/09/26 08:23:48;;;;;;;14.05;7.75;;;;;;;22.01;100.00;99711.00;4970934;29;20043;-90
2022/09/26 08:26:32;;;;;;;9.02;6.57;;;;;;;22.58;99.50;99708.47;4941501;29;20059;-90
2022/09/26 08:29:20;;;;;;;12.48;6.95;;;;;;;23.94;91.27;99706.38;4956194;29;20074;-89
2022/09/26 08:31:50;;;;;;;12.77;7.88;;;;;;;23.71;88.22;99709.56;4918417;29;20040;-89
2022/09/26 08:34:56;;;;;;;12.05;8.05;;;;;;;23.45;89.96;99706.00;4926146;29;20027;-90
2022/09/26 08:37:31;;;;;;;12.57;7.95;;;;;;;23.28;91.83;99696.44;4933799;29;20047;-90
2022/09/26 08:40:16;;;;;;;15.07;9.45;;;;;;;23.13;92.13;99700.69;4953742;29;20066;-89
2022/09/26 08:43:50;;;;;;;15.85;9.63;;;;;;;22.67;95.24;99701.53;4866828;29;20084;-90
2022/09/26 08:47:00;;;;;;;13.55;9.73;;;;;;;23.58;89.99;99710.91;4849605;29;20042;-87
2022/09/26 08:50:01;;;;;;;13.75;9.30;;;;;;;24.16;86.93;99712.34;4843225;29;20049;-85
2022/09/26 08:52:52;;;;;;;12.68;9.00;;;;;;;23.46;90.80;99718.47;4841777;29;20073;-83
2022/09/26 08:55:25;;;;;;;13.18;8.85;;;;;;;24.01;88.70;99716.94;4842709;29;20145;-82
2022/09/26 08:58:22;;;;;;;12.95;9.55;;;;;;;23.64;89.87;99725.25;4841039;29;21076;-84
2022/09/26 09:01:10;;;;;;;13.45;9.90;;;;;;;23.63;90.70;99723.66;4850489;29;20045;-85
2022/09/26 09:04:06;;;;;;;16.77;9.48;;;;;;;24.53;84.96;99716.69;4880239;29;20038;-86
2022/09/26 09:06:33;;;;;;;15.82;9.38;;;;;;;24.50;83.94;99714.50;4845439;29;20069;-87
2022/09/26 09:08:59;;;;;;;13.35;9.43;;;;;;;25.08;80.18;99713.88;4859905;29;20046;-86
2022/09/26 09:12:19;;;;;;;11.73;9.13;;;;;;;24.94;81.93;99706.59;4858698;29;20050;-84
2022/09/26 09:15:04;;;;;;;12.80;9.45;;;;;;;25.30;79.24;99699.13;4833129;29;20146;-85
2022/09/26 09:18:05;;;;;;;11.80;8.57;;;;;;;24.93;80.42;99700.38;4825939;29;20551;-85
2022/09/26 09:20:55;;;;;;;11.38;8.60;;;;;;;25.31;78.58;99707.00;4826326;29;20057;-86
2022/09/26 09:24:17;;;;;;;11.48;8.85;;;;;;;25.15;79.66;99708.16;4865504;29;20064;-85
2022/09/26 09:27:14;;;;;;;11.27;7.78;;;;;;;25.87;76.27;99710.25;4862105;29;20403;-86
2022/09/26 09:30:19;;;;;;;11.07;8.25;;;;;;;25.53;75.81;99703.94;4864011;29;20136;-88
2022/09/26 09:33:04;;;;;;;12.95;8.57;;;;;;;26.72;69.22;99702.47;4882640;29;20037;-86
2022/09/26 09:35:45;;;;;;;11.57;8.55;;;;;;;26.82;68.77;99710.56;4861150;29;20037;-85
2022/09/26 09:38:42;;;;;;;16.30;8.77;;;;;;;26.44;70.62;99693.25;4934023;29;20032;-82
2022/09/26 09:41:55;;;;;;;10.00;7.57;;;;;;;26.35;70.94;99702.31;4943027;28;20036;-89
2022/09/26 09:44:45;;;;;;;19.77;14.38;;;;;;;26.14;70.71;99698.91;4944554;29;20433;-88
2022/09/26 09:47:14;;;;;;;15.55;10.23;;;;;;;25.63;74.34;99693.84;4924492;29;20136;-88
2022/09/26 09:49:43;;;;;;;11.77;9.00;;;;;;;25.87;73.54;99696.66;4927170;29;20045;-91
2022/09/26 09:52:48;;;;;;;10.60;8.23;;;;;;;25.90;73.21;99698.81;4928676;29;20126;-91
2022/09/26 09:55:41;;;;;;;14.98;9.18;;;;;;;26.85;68.37;99692.84;4933151;29;20032;-89
2022/09/26 09:58:31;;;;;;;13.00;9.10;;;;;;;26.97;68.68;99685.09;4937498;29;20043;-89
2022/09/26 10:01:11;;;;;;;12.85;9.38;;;;;;;26.86;68.46;99684.41;4931881;29;20035;-89
2022/09/26 10:03:56;;;;;;;14.10;8.88;;;;;;;27.75;64.70;99685.44;4928279;29;20046;-88
2022/09/26 10:06:24;;;;;;;10.55;7.93;;;;;;;27.44;65.62;99689.72;4927834;29;20378;-91
2022/09/26 10:08:50;;;;;;;13.73;8.30;;;;;;;27.67;65.67;99683.41;4929716;29;20039;-90
2022/09/26 10:11:51;;;;;;;11.77;7.95;;;;;;;27.94;64.22;99682.72;4897993;29;20047;-88
2022/09/26 10:14:39;;;;;;;11.43;9.23;;;;;;;28.19;54.82;99679.59;4941911;29;20508;-90
2022/09/26 10:17:08;;;;;;;12.27;9.20;;;;;;;27.68;57.71;99679.56;4942750;29;20425;-89
2022/09/26 10:19:39;;;;;;;;;;;;;;;27.91;56.85;99667.75;4926014;29;20066;-89
2022/09/26 10:22:11;;;;;;;12.60;9.23;;;;;;;27.51;58.63;99673.84;4925413;29;19918;-88
2022/09/26 10:24:39;;;;;;;19.33;9.05;;;;;;;27.38;59.63;99674.50;4932870;29;20043;-89
2022/09/26 10:27:45;;;;;;;13.68;9.75;;;;;;;27.38;58.17;99669.06;4929028;29;20032;-90
2022/09/26 10:30:17;;;;;;;14.55;10.15;;;;;;;27.42;57.97;99679.06;4953078;29;20044;-91
2022/09/26 10:32:52;;;;;;;13.52;9.82;;;;;;;25.77;63.03;99672.31;4924814;29;20051;-86
2022/09/26 10:35:43;;;;;;;12.95;10.13;;;;;;;25.19;64.93;99661.22;4913294;29;20050;-89
2022/09/26 10:38:29;;;;;;;20.13;11.60;;;;;;;25.41;65.97;99660.84;4925720;29;20465;-88
2022/09/26 10:41:21;;;;;;;15.07;10.43;;;;;;;27.04;60.84;99670.06;4924773;29;20095;-90
2022/09/26 10:43:53;;;;;;;11.70;9.90;;;;;;;28.17;54.72;99666.25;4936881;29;20046;-89
2022/09/26 10:46:45;;;;;;;16.33;10.00;;;;;;;26.98;58.11;99663.03;4942257;29;20048;-89
2022/09/26 10:49:38;;;;;;;11.70;9.57;;;;;;;28.02;54.41;99665.69;4939884;29;20051;-89
2022/09/26 10:52:34;;;;;;;11.32;9.45;;;;;;;27.49;54.11;99670.59;4924498;29;20401;-88
2022/09/26 10:55:04;;;;;;;10.05;8.30;;;;;;;27.49;53.95;99660.50;4926518;29;20056;-92
2022/09/26 10:57:44;;;;;;;12.40;8.55;;;;;;;27.79;53.33;99655.69;4942761;29;20123;-88
2022/09/26 11:00:18;;;;;;;13.50;8.85;;;;;;;27.84;52.24;99650.97;4922641;29;20047;-90
2022/09/26 11:02:50;;;;;;;13.75;9.77;;;;;;;26.43;56.78;99647.34;4935562;29;20047;-90
2022/09/26 11:08:17;;;;;;;11.77;8.30;;;;;;;25.99;58.46;99642.81;4943218;29;20435;-88
2022/09/26 11:11:02;;;;;;;10.68;7.78;;;;;;;26.87;55.30;99641.72;4922899;29;20035;-89
2022/09/26 11:13:46;;;;;;;9.57;7.68;;;;;;;27.21;54.04;99643.16;4922183;29;20088;-89
2022/09/26 11:16:14;;;;;;;10.63;8.65;;;;;;;27.20;53.23;99627.97;4923817;29;20039;-89
2022/09/26 11:18:59;;;;;;;13.50;8.70;;;;;;;27.92;52.41;99614.09;4924173;29;20042;-86
2022/09/26 11:21:40;;;;;;;10.77;8.77;;;;;;;27.69;53.55;99602.22;4925459;29;20051;-89
2022/09/26 11:24:29;;;;;;;12.10;9.27;;;;;;;26.00;58.46;99603.72;4941685;29;20040;-89
2022/09/26 11:27:13;;;;;;;14.75;9.77;;;;;;;26.13;58.80;99596.78;4936393;29;20035;-89
2022/09/26 11:29:45;;;;;;;11.27;9.35;;;;;;;26.03;60.11;99600.41;4921409;29;20047;-88
2022/09/26 11:32:39;;;;;;;15.15;9.73;;;;;;;26.94;56.84;99588.59;4923078;29;20070;-88
2022/09/26 11:35:55;;;;;;;13.95;10.50;;;;;;;27.94;52.93;99585.44;4944105;29;20078;-86
2022/09/26 11:38:43;;;;;;;13.10;9.45;;;;;;;28.71;48.84;99593.88;4951242;29;20055;-88
2022/09/26 11:41:40;;;;;;;12.27;9.57;;;;;;;28.87;47.86;99583.47;4932701;29;20489;-90
2022/09/26 11:44:31;;;;;;;11.57;9.15;;;;;;;29.08;47.24;99579.97;4962523;28;20043;-88
2022/09/26 11:47:18;;;;;;;14.45;10.50;;;;;;;29.04;47.33;99578.97;4952086;29;20129;-88
2022/09/26 11:50:10;;;;;;;14.52;10.20;;;;;;;29.58;45.92;99571.75;4932394;29;20043;-88
2022/09/26 11:53:04;;;;;;;16.35;9.60;;;;;;;28.91;46.43;99566.16;4928431;29;20032;-89
2022/09/26 11:56:07;;;;;;;14.52;11.55;;;;;;;26.90;53.15;99565.81;4952528;29;20035;-89
2022/09/26 11:59:05;;;;;;;12.27;9.93;;;;;;;25.12;60.26;99554.16;4949166;29;20043;-89
2022/09/26 12:02:07;;;;;;;12.32;10.05;;;;;;;24.35;64.87;99550.13;4939523;29;20042;-89
2022/09/26 12:05:29;;;;;;;13.93;10.17;;;;;;;23.72;68.36;99538.03;4932832;29;20350;-90
2022/09/26 12:08:13;;;;;;;13.65;11.43;;;;;;;23.13;71.27;99526.91;4898915;29;20418;-88
2022/09/26 12:10:47;;;;;;;15.07;10.63;;;;;;;22.77;73.64;99522.50;4897835;29;20072;-89
2022/09/26 12:13:21;;;;;;;13.65;11.02;;;;;;;22.55;76.39;99506.44;4902218;29;20498;-89
2022/09/26 12:16:17;;;;;;;12.85;10.18;;;;;;;22.73;75.00;99502.50;4889916;29;20057;-87
2022/09/26 12:19:05;;;;;;;13.35;10.50;;;;;;;22.91;74.31;99504.69;4912360;29;20057;-90
2022/09/26 12:21:37;;;;;;;14.77;10.23;;;;;;;22.85;75.03;99501.16;4901173;29;20044;-88
2022/09/26 12:24:22;;;;;;;12.90;10.20;;;;;;;23.10;72.39;99487.69;4916596;29;20048;-88
2022/09/26 12:27:24;;;;;;;13.93;11.13;;;;;;;22.65;76.35;99483.00;5010329;23;20082;-90
2022/09/26 12:30:12;;;;;;;15.18;10.68;;;;;;;22.39;79.16;99481.28;4992399;28;20093;-87
2022/09/26 12:33:07;;;;;;;13.40;10.23;;;;;;;22.46;79.30;99483.72;4962763;28;20031;-90
2022/09/26 12:35:32;;;;;;;12.95;10.38;;;;;;;22.50;78.29;99479.44;4956369;28;20373;-88
2022/09/26 12:38:13;;;;;;;12.98;10.00;;;;;;;21.97;82.81;99478.66;4979108;28;20035;-88
2022/09/26 12:41:13;;;;;;;12.52;10.23;;;;;;;22.20;79.04;99468.50;4963770;28;20042;-88
2022/09/26 12:43:53;;;;;;;13.50;10.23;;;;;;;22.01;81.22;99468.94;4985826;28;20043;-88
2022/09/26 12:46:28;;;;;;;12.18;9.75;;;;;;;22.17;78.90;99455.56;4979360;28;20066;-89